Time,TemperatureF,DewpointF,PressureIn,WindDirection,WindDirectionDegrees,WindSpeedMPH,WindSpeedGustMPH,Humidity,HourlyPrecipIn,Conditions,Clouds,dailyrainin,SolarRadiationWatts/m^2,SoftwareType,DateUTC
2013-05-08 00:01:00,50.4,47.0,29.96,NW,317,0.0,0.0,88,0.00,,,0.00,0,WeatherCatV1.14B232,2013-05-08 07:01:00,
2013-05-08 00:06:00,50.2,46.8,29.96,NW,317,0.0,0.0,88,0.00,,,0.00,0,WeatherCatV1.14B232,2013-05-08 07:06:00,
2013-05-08 00:11:00,50.1,46.7,29.96,NW,317,0.0,0.0,88,0.00,,,0.00,0,WeatherCatV1.14B232,2013-05-08 07:11:00,
2013-05-08 00:16:00,49.9,46.5,29.97,NW,317,0.0,0.0,88,0.00,,,0.00,0,WeatherCatV1.14B232,2013-05-08 07:16:00,
2013-05-08 00:21:00,49.8,46.4,29.97,NW,317,0.0,0.0,88,0.00,,,0.00,0,WeatherCatV1.14B232,2013-05-08 07:21:00,
2013-05-08 00:26:00,49.6,46.2,29.97,NW,317,0.0,0.0,88,0.00,,,0.00,0,WeatherCatV1.14B232,2013-05-08 07:26:00,
2013-05-08 00:31:00,49.5,46.4,29.97,NW,317,0.0,0.0,89,0.00,,,0.00,0,WeatherCatV1.14B232,2013-05-08 07:31:00,
2013-05-08 00:36:00,49.4,46.3,29.97,NW,317,0.0,0.0,89,0.00,,,0.00,0,WeatherCatV1.14B232,2013-05-08 07:36:00,
2013-05-08 00:41:00,49.2,46.4,29.97,NW,317,0.0,0.0,90,0.00,,,0.00,0,WeatherCatV1.14B232,2013-05-08 07:41:00,
2013-05-08 00:46:00,49.1,46.3,29.97,NW,317,0.0,0.0,90,0.00,,,0.00,0,WeatherCatV1.14B232,2013-05-08 07:46:00,
2013-05-08 00:51:00,49.1,46.3,29.97,NW,317,0.0,0.0,90,0.00,,,0.00,0,WeatherCatV1.14B232,2013-05-08 07:51:00,
2013-05-08 00:56:00,48.9,46.1,29.97,NW,317,0.0,0.0,90,0.00,,,0.00,0,WeatherCatV1.14B232,2013-05-08 07:56:00,
2013-05-08 01:01:00,48.8,46.0,29.98,NW,317,0.0,0.0,90,0.00,,,0.00,0,WeatherCatV1.14B232,2013-05-08 08:01:00,
2013-05-08 01:06:00,48.6,45.8,29.98,NW,317,0.0,0.0,90,0.00,,,0.00,0,WeatherCatV1.14B232,2013-05-08 08:06:00,
2013-05-08 01:11:00,48.5,45.7,29.98,NW,317,0.0,0.0,90,0.00,,,0.00,0,WeatherCatV1.14B232,2013-05-08 08:11:00,
2013-05-08 01:16:00,48.3,45.5,29.99,NW,317,0.0,0.0,90,0.00,,,0.00,0,WeatherCatV1.14B232,2013-05-08 08:16:00,
2013-05-08 01:21:00,48.2,45.4,29.99,NW,317,0.0,0.0,90,0.00,,,0.00,0,WeatherCatV1.14B232,2013-05-08 08:21:00,
2013-05-08 01:26:00,48.0,45.2,29.99,NW,317,0.0,0.0,90,0.00,,,0.00,0,WeatherCatV1.14B232,2013-05-08 08:26:00,
2013-05-08 01:31:00,48.0,45.2,29.99,NW,317,0.0,0.0,90,0.00,,,0.00,0,WeatherCatV1.14B232,2013-05-08 08:31:00,
2013-05-08 01:36:00,47.9,45.1,29.99,NW,317,0.0,0.0,90,0.00,,,0.00,0,WeatherCatV1.14B232,2013-05-08 08:36:00,
2013-05-08 01:41:00,47.7,44.9,29.99,NW,317,0.0,0.0,90,0.00,,,0.00,0,WeatherCatV1.14B232,2013-05-08 08:41:00,
2013-05-08 01:46:00,47.6,44.8,29.99,NW,317,0.0,0.0,90,0.00,,,0.00,0,WeatherCatV1.14B232,2013-05-08 08:46:00,
2013-05-08 01:51:00,47.6,44.8,29.99,NW,317,0.0,0.0,90,0.00,,,0.00,0,WeatherCatV1.14B232,2013-05-08 08:51:00,
2013-05-08 01:56:00,47.4,44.9,29.99,NW,317,0.0,0.0,91,0.00,,,0.00,0,WeatherCatV1.14B232,2013-05-08 08:56:00,
2013-05-08 02:01:00,47.3,44.5,30.00,NW,317,0.0,0.0,90,0.00,,,0.00,0,WeatherCatV1.14B232,2013-05-08 09:01:00,
2013-05-08 02:06:00,47.1,44.3,30.00,NW,317,0.0,0.0,90,0.00,,,0.00,0,WeatherCatV1.14B232,2013-05-08 09:06:00,
2013-05-08 02:11:00,47.0,44.2,30.00,NW,317,0.0,0.0,90,0.00,,,0.00,0,WeatherCatV1.14B232,2013-05-08 09:11:00,
2013-05-08 02:16:00,47.0,44.2,30.00,NW,317,0.0,0.0,90,0.00,,,0.00,0,WeatherCatV1.14B232,2013-05-08 09:16:00,
2013-05-08 02:21:00,46.8,44.0,30.00,NW,317,0.0,0.0,90,0.00,,,0.00,0,WeatherCatV1.14B232,2013-05-08 09:21:00,
2013-05-08 02:26:00,46.8,44.3,30.00,NW,317,0.0,0.0,91,0.00,,,0.00,0,WeatherCatV1.14B232,2013-05-08 09:26:00,
2013-05-08 02:31:00,46.7,43.9,30.00,NW,317,0.0,0.0,90,0.00,,,0.00,0,WeatherCatV1.14B232,2013-05-08 09:31:00,
2013-05-08 02:36:00,46.5,44.0,30.00,NW,317,0.0,0.0,91,0.00,,,0.00,0,WeatherCatV1.14B232,2013-05-08 09:36:00,
2013-05-08 02:41:00,46.5,44.0,30.00,NW,317,0.0,0.0,91,0.00,,,0.00,0,WeatherCatV1.14B232,2013-05-08 09:41:00,
2013-05-08 02:46:00,46.4,43.9,30.00,NW,317,0.0,0.0,91,0.00,,,0.00,0,WeatherCatV1.14B232,2013-05-08 09:46:00,
2013-05-08 02:51:00,46.2,43.7,30.00,NW,317,0.0,0.0,91,0.00,,,0.00,0,WeatherCatV1.14B232,2013-05-08 09:51:00,
2013-05-08 02:56:00,46.2,43.7,30.00,NW,317,0.0,0.0,91,0.00,,,0.00,0,WeatherCatV1.14B232,2013-05-08 09:56:00,
2013-05-08 03:01:00,46.2,44.0,30.01,NW,317,0.0,0.0,92,0.00,,,0.00,0,WeatherCatV1.14B232,2013-05-08 10:01:00,
2013-05-08 03:06:00,46.1,43.9,30.01,NW,317,0.0,0.0,92,0.00,,,0.00,0,WeatherCatV1.14B232,2013-05-08 10:06:00,
2013-05-08 03:11:00,46.1,43.9,30.01,NW,317,0.0,0.0,92,0.00,,,0.00,0,WeatherCatV1.14B232,2013-05-08 10:11:00,
2013-05-08 03:16:00,46.0,43.8,30.01,NW,317,0.0,0.0,92,0.00,,,0.00,0,WeatherCatV1.14B232,2013-05-08 10:16:00,
2013-05-08 03:21:00,45.8,43.6,30.01,NW,317,0.0,0.0,92,0.00,,,0.00,0,WeatherCatV1.14B232,2013-05-08 10:21:00,
2013-05-08 03:26:00,45.8,43.6,30.01,NW,317,0.0,0.0,92,0.00,,,0.00,0,WeatherCatV1.14B232,2013-05-08 10:26:00,
2013-05-08 03:31:00,45.7,43.5,30.02,NW,317,0.0,0.0,92,0.00,,,0.00,0,WeatherCatV1.14B232,2013-05-08 10:31:00,
2013-05-08 03:36:00,45.7,43.5,30.02,NW,317,0.0,0.0,92,0.00,,,0.00,0,WeatherCatV1.14B232,2013-05-08 10:36:00,
2013-05-08 03:41:00,45.7,43.5,30.02,NW,317,0.0,0.0,92,0.00,,,0.00,0,WeatherCatV1.14B232,2013-05-08 10:41:00,
2013-05-08 03:46:00,45.5,43.3,30.02,NW,317,0.0,0.0,92,0.00,,,0.00,0,WeatherCatV1.14B232,2013-05-08 10:46:00,
2013-05-08 03:51:00,45.5,43.3,30.02,NW,317,0.0,0.0,92,0.00,,,0.00,0,WeatherCatV1.14B232,2013-05-08 10:51:00,
2013-05-08 03:56:00,45.4,43.5,30.02,NW,317,0.0,0.0,93,0.00,,,0.00,0,WeatherCatV1.14B232,2013-05-08 10:56:00,
2013-05-08 04:01:00,45.4,43.5,30.03,NW,317,0.0,0.0,93,0.00,,,0.00,0,WeatherCatV1.14B232,2013-05-08 11:01:00,
2013-05-08 04:06:00,45.4,43.5,30.03,NW,317,0.0,0.0,93,0.00,,,0.00,0,WeatherCatV1.14B232,2013-05-08 11:06:00,
2013-05-08 04:11:00,45.4,43.5,30.03,NW,317,0.0,0.0,93,0.00,,,0.00,0,WeatherCatV1.14B232,2013-05-08 11:11:00,
2013-05-08 04:16:00,45.4,43.5,30.03,NW,317,0.0,0.0,93,0.00,,,0.00,0,WeatherCatV1.14B232,2013-05-08 11:16:00,
2013-05-08 04:21:00,45.2,43.3,30.03,NW,317,0.0,0.0,93,0.00,,,0.00,0,WeatherCatV1.14B232,2013-05-08 11:21:00,
2013-05-08 04:26:00,45.2,43.3,30.03,NW,317,0.0,0.0,93,0.00,,,0.00,0,WeatherCatV1.14B232,2013-05-08 11:26:00,
2013-05-08 04:31:00,45.2,43.3,30.03,NW,317,0.0,0.0,93,0.00,,,0.00,0,WeatherCatV1.14B232,2013-05-08 11:31:00,
2013-05-08 04:36:00,45.2,43.3,30.03,NW,317,0.0,0.0,93,0.00,,,0.00,0,WeatherCatV1.14B232,2013-05-08 11:36:00,
2013-05-08 04:41:00,45.1,43.2,30.03,NW,317,0.0,0.0,93,0.00,,,0.00,0,WeatherCatV1.14B232,2013-05-08 11:41:00,
2013-05-08 04:46:00,45.1,43.2,30.03,NW,317,0.0,0.0,93,0.00,,,0.00,0,WeatherCatV1.14B232,2013-05-08 11:46:00,
2013-05-08 04:51:00,45.1,43.2,30.03,NW,317,0.0,0.0,93,0.00,,,0.00,0,WeatherCatV1.14B232,2013-05-08 11:51:00,
2013-05-08 04:56:00,44.9,43.0,30.03,NW,317,0.0,0.0,93,0.00,,,0.00,0,WeatherCatV1.14B232,2013-05-08 11:56:00,
2013-05-08 05:01:00,44.9,43.0,30.03,NW,317,0.0,0.0,93,0.00,,,0.00,0,WeatherCatV1.14B232,2013-05-08 12:01:00,
2013-05-08 05:06:00,44.9,43.0,30.03,NW,317,0.0,0.0,93,0.00,,,0.00,0,WeatherCatV1.14B232,2013-05-08 12:06:00,
2013-05-08 05:11:00,44.9,43.0,30.03,NW,317,0.0,0.0,93,0.00,,,0.00,0,WeatherCatV1.14B232,2013-05-08 12:11:00,
2013-05-08 05:16:00,44.9,43.3,30.04,NW,317,0.0,0.0,94,0.00,,,0.00,0,WeatherCatV1.14B232,2013-05-08 12:16:00,
2013-05-08 05:21:00,44.9,43.3,30.04,NW,317,0.0,0.0,94,0.00,,,0.00,0,WeatherCatV1.14B232,2013-05-08 12:21:00,
2013-05-08 05:26:00,44.9,43.3,30.04,NW,317,0.0,0.0,94,0.00,,,0.00,0,WeatherCatV1.14B232,2013-05-08 12:26:00,
2013-05-08 05:31:00,45.1,43.5,30.04,NW,317,0.0,0.0,94,0.00,,,0.00,0,WeatherCatV1.14B232,2013-05-08 12:31:00,
2013-05-08 05:36:00,45.2,43.6,30.04,NW,317,0.0,0.0,94,0.00,,,0.00,0,WeatherCatV1.14B232,2013-05-08 12:36:00,
2013-05-08 05:41:00,45.2,43.9,30.04,NW,317,0.0,0.0,95,0.00,,,0.00,0,WeatherCatV1.14B232,2013-05-08 12:41:00,
2013-05-08 05:46:00,45.5,44.2,30.05,NW,317,0.0,0.0,95,0.00,,,0.00,0,WeatherCatV1.14B232,2013-05-08 12:46:00,
2013-05-08 05:51:00,45.7,44.3,30.05,NW,317,0.0,0.0,95,0.00,,,0.00,0,WeatherCatV1.14B232,2013-05-08 12:51:00,
2013-05-08 05:56:00,46.0,44.6,30.05,NW,317,0.0,0.0,95,0.00,,,0.00,5,WeatherCatV1.14B232,2013-05-08 12:56:00,
2013-05-08 06:01:00,46.1,44.7,30.05,NW,317,0.0,0.0,95,0.00,,,0.00,5,WeatherCatV1.14B232,2013-05-08 13:01:00,
2013-05-08 06:06:00,46.4,45.0,30.05,NW,317,0.0,0.0,95,0.00,,,0.00,7,WeatherCatV1.14B232,2013-05-08 13:06:00,
2013-05-08 06:11:00,46.7,45.6,30.05,NW,317,0.0,0.0,96,0.00,,,0.00,7,WeatherCatV1.14B232,2013-05-08 13:11:00,
2013-05-08 06:16:00,46.8,45.7,30.05,NW,317,0.0,0.0,96,0.00,,,0.00,9,WeatherCatV1.14B232,2013-05-08 13:16:00,
2013-05-08 06:21:00,47.0,45.9,30.05,NW,317,0.0,0.0,96,0.00,,,0.00,11,WeatherCatV1.14B232,2013-05-08 13:21:00,
2013-05-08 06:26:00,47.1,46.0,30.05,NW,317,0.0,0.0,96,0.00,,,0.00,14,WeatherCatV1.14B232,2013-05-08 13:26:00,
2013-05-08 06:31:00,47.3,46.2,30.06,NW,317,0.0,0.0,96,0.00,,,0.00,16,WeatherCatV1.14B232,2013-05-08 13:31:00,
2013-05-08 06:36:00,47.6,46.5,30.06,NW,317,0.0,0.0,96,0.00,,,0.00,18,WeatherCatV1.14B232,2013-05-08 13:36:00,
2013-05-08 06:41:00,47.9,46.8,30.06,NW,317,0.0,0.0,96,0.00,,,0.00,19,WeatherCatV1.14B232,2013-05-08 13:41:00,
2013-05-08 06:46:00,48.0,46.9,30.06,NW,317,0.0,0.0,96,0.00,,,0.00,23,WeatherCatV1.14B232,2013-05-08 13:46:00,
2013-05-08 06:51:00,48.3,47.2,30.06,NW,317,0.0,0.0,96,0.00,,,0.00,26,WeatherCatV1.14B232,2013-05-08 13:51:00,
2013-05-08 06:56:00,48.6,47.8,30.06,NW,317,0.0,0.0,97,0.00,,,0.00,32,WeatherCatV1.14B232,2013-05-08 13:56:00,
2013-05-08 07:01:00,48.8,47.7,30.06,NW,317,0.0,0.0,96,0.00,,,0.00,35,WeatherCatV1.14B232,2013-05-08 14:01:00,
2013-05-08 07:06:00,48.9,47.8,30.06,NW,317,0.0,0.0,96,0.00,,,0.00,39,WeatherCatV1.14B232,2013-05-08 14:06:00,
2013-05-08 07:11:00,49.1,48.3,30.06,NW,317,0.0,0.0,97,0.00,,,0.00,40,WeatherCatV1.14B232,2013-05-08 14:11:00,
2013-05-08 07:16:00,49.2,48.4,30.07,NW,317,0.0,0.0,97,0.00,,,0.00,42,WeatherCatV1.14B232,2013-05-08 14:16:00,
2013-05-08 07:21:00,49.4,48.6,30.07,NW,317,0.0,0.0,97,0.00,,,0.00,42,WeatherCatV1.14B232,2013-05-08 14:21:00,
2013-05-08 07:26:00,49.5,48.7,30.07,NW,317,0.0,0.0,97,0.00,,,0.00,46,WeatherCatV1.14B232,2013-05-08 14:26:00,
2013-05-08 07:31:00,49.5,48.7,30.07,NW,317,0.0,0.0,97,0.00,,,0.00,44,WeatherCatV1.14B232,2013-05-08 14:31:00,
2013-05-08 07:36:00,49.6,48.8,30.07,NW,317,0.0,0.0,97,0.00,,,0.00,47,WeatherCatV1.14B232,2013-05-08 14:36:00,
2013-05-08 07:41:00,49.8,49.0,30.07,NW,317,0.0,0.0,97,0.00,,,0.00,56,WeatherCatV1.14B232,2013-05-08 14:41:00,
2013-05-08 07:46:00,49.8,49.0,30.07,NW,317,0.0,0.0,97,0.00,,,0.00,67,WeatherCatV1.14B232,2013-05-08 14:46:00,
2013-05-08 07:51:00,49.9,49.1,30.07,NW,317,0.0,0.0,97,0.00,,,0.00,65,WeatherCatV1.14B232,2013-05-08 14:51:00,
2013-05-08 07:56:00,50.1,49.3,30.07,NW,317,0.0,0.0,97,0.00,,,0.00,72,WeatherCatV1.14B232,2013-05-08 14:56:00,
2013-05-08 08:01:00,50.1,49.3,30.07,NW,317,0.0,0.0,97,0.00,,,0.00,74,WeatherCatV1.14B232,2013-05-08 15:01:00,
2013-05-08 08:06:00,50.2,49.4,30.07,NW,317,0.0,0.0,97,0.00,,,0.00,77,WeatherCatV1.14B232,2013-05-08 15:06:00,
2013-05-08 08:11:00,50.4,49.6,30.07,NW,317,0.0,0.0,97,0.00,,,0.00,83,WeatherCatV1.14B232,2013-05-08 15:11:00,
2013-05-08 08:16:00,50.7,49.9,30.07,NW,317,0.0,0.0,97,0.00,,,0.00,76,WeatherCatV1.14B232,2013-05-08 15:16:00,
2013-05-08 08:21:00,50.8,50.0,30.07,NW,317,0.0,0.0,97,0.00,,,0.00,86,WeatherCatV1.14B232,2013-05-08 15:21:00,
2013-05-08 08:26:00,51.0,50.2,30.07,NW,317,0.0,0.0,97,0.00,,,0.00,93,WeatherCatV1.14B232,2013-05-08 15:26:00,
2013-05-08 08:31:00,51.3,50.5,30.08,NW,317,0.0,0.0,97,0.00,,,0.00,88,WeatherCatV1.14B232,2013-05-08 15:31:00,
2013-05-08 08:36:00,51.4,50.6,30.08,NW,317,0.0,0.0,97,0.00,,,0.00,83,WeatherCatV1.14B232,2013-05-08 15:36:00,
2013-05-08 08:41:00,51.4,50.6,30.08,NW,317,0.0,0.0,97,0.00,,,0.00,91,WeatherCatV1.14B232,2013-05-08 15:41:00,
2013-05-08 08:46:00,51.4,50.6,30.08,NW,317,0.0,0.0,97,0.00,,,0.00,109,WeatherCatV1.14B232,2013-05-08 15:46:00,
2013-05-08 08:51:00,51.6,50.8,30.08,NW,317,0.0,0.0,97,0.00,,,0.00,97,WeatherCatV1.14B232,2013-05-08 15:51:00,
2013-05-08 08:56:00,51.6,50.8,30.08,NW,317,0.0,0.0,97,0.00,,,0.00,100,WeatherCatV1.14B232,2013-05-08 15:56:00,
2013-05-08 09:01:00,51.7,50.9,30.08,NW,317,0.0,0.0,97,0.00,,,0.00,102,WeatherCatV1.14B232,2013-05-08 16:01:00,
2013-05-08 09:06:00,51.7,50.9,30.08,NW,317,0.0,1.0,97,0.00,,,0.00,118,WeatherCatV1.14B232,2013-05-08 16:06:00,
2013-05-08 09:11:00,51.7,50.9,30.08,NW,317,0.0,0.0,97,0.00,,,0.00,116,WeatherCatV1.14B232,2013-05-08 16:11:00,
2013-05-08 09:16:00,51.7,50.9,30.08,NW,317,0.0,0.0,97,0.00,,,0.00,134,WeatherCatV1.14B232,2013-05-08 16:16:00,
2013-05-08 09:21:00,51.7,50.9,30.08,NNE,25,0.0,1.0,97,0.00,,,0.00,105,WeatherCatV1.14B232,2013-05-08 16:21:00,
2013-05-08 09:26:00,51.7,50.9,30.08,NNE,26,0.0,0.0,97,0.00,,,0.00,116,WeatherCatV1.14B232,2013-05-08 16:26:00,
2013-05-08 09:31:00,51.9,51.1,30.08,NNE,26,0.0,1.0,97,0.00,,,0.00,100,WeatherCatV1.14B232,2013-05-08 16:31:00,
2013-05-08 09:36:00,51.9,51.1,30.08,NNE,26,0.0,0.0,97,0.00,,,0.00,128,WeatherCatV1.14B232,2013-05-08 16:36:00,
2013-05-08 09:41:00,52.0,51.2,30.08,NNE,26,1.0,1.0,97,0.00,,,0.00,125,WeatherCatV1.14B232,2013-05-08 16:41:00,
2013-05-08 09:46:00,52.0,51.2,30.09,NNE,26,0.0,0.0,97,0.00,,,0.00,130,WeatherCatV1.14B232,2013-05-08 16:46:00,
2013-05-08 09:51:00,52.2,51.4,30.09,NNE,26,0.0,0.0,97,0.00,,,0.00,123,WeatherCatV1.14B232,2013-05-08 16:51:00,
2013-05-08 09:56:00,52.2,51.4,30.09,NNE,26,0.0,1.0,97,0.00,,,0.00,114,WeatherCatV1.14B232,2013-05-08 16:56:00,
2013-05-08 10:01:00,52.2,51.1,30.09,NNE,26,1.0,1.0,96,0.00,,,0.00,123,WeatherCatV1.14B232,2013-05-08 17:01:00,
2013-05-08 10:06:00,52.0,50.9,30.09,NNE,26,0.0,1.0,96,0.00,,,0.00,123,WeatherCatV1.14B232,2013-05-08 17:06:00,
2013-05-08 10:11:00,52.2,51.1,30.09,NNE,26,0.0,0.0,96,0.00,,,0.00,135,WeatherCatV1.14B232,2013-05-08 17:11:00,
2013-05-08 10:16:00,52.2,51.1,30.10,NNE,26,0.0,0.0,96,0.00,,,0.00,130,WeatherCatV1.14B232,2013-05-08 17:16:00,
2013-05-08 10:21:00,52.3,51.2,30.10,NNE,26,0.0,0.0,96,0.00,,,0.00,130,WeatherCatV1.14B232,2013-05-08 17:21:00,
2013-05-08 10:26:00,52.3,51.2,30.10,NNE,26,0.0,0.0,96,0.00,,,0.00,127,WeatherCatV1.14B232,2013-05-08 17:26:00,
2013-05-08 10:31:00,52.5,51.4,30.10,NNE,26,0.0,0.0,96,0.00,,,0.00,127,WeatherCatV1.14B232,2013-05-08 17:31:00,
2013-05-08 10:36:00,52.6,51.5,30.10,NNE,26,0.0,1.0,96,0.00,,,0.00,120,WeatherCatV1.14B232,2013-05-08 17:36:00,
2013-05-08 10:41:00,52.8,51.7,30.10,NNE,26,0.0,0.0,96,0.00,,,0.00,118,WeatherCatV1.14B232,2013-05-08 17:41:00,
2013-05-08 10:46:00,52.9,51.5,30.10,NNE,26,0.0,0.0,95,0.00,,,0.00,144,WeatherCatV1.14B232,2013-05-08 17:46:00,
2013-05-08 10:51:00,52.9,51.5,30.10,NNE,26,0.0,0.0,95,0.00,,,0.00,188,WeatherCatV1.14B232,2013-05-08 17:51:00,
2013-05-08 10:56:00,53.2,51.8,30.10,NNE,26,0.0,0.0,95,0.00,,,0.00,227,WeatherCatV1.14B232,2013-05-08 17:56:00,
2013-05-08 11:01:00,53.3,51.9,30.10,NNE,26,0.0,0.0,95,0.00,,,0.00,227,WeatherCatV1.14B232,2013-05-08 18:01:00,
2013-05-08 11:06:00,53.6,52.2,30.10,NNE,26,0.0,0.0,95,0.00,,,0.00,197,WeatherCatV1.14B232,2013-05-08 18:06:00,
2013-05-08 11:11:00,53.8,52.4,30.10,NNE,26,0.0,0.0,95,0.00,,,0.00,207,WeatherCatV1.14B232,2013-05-08 18:11:00,
2013-05-08 11:16:00,53.9,52.2,30.10,NE,47,0.0,2.0,94,0.00,,,0.00,269,WeatherCatV1.14B232,2013-05-08 18:16:00,
2013-05-08 11:21:00,54.2,52.2,30.10,NE,47,0.0,0.0,93,0.00,,,0.00,281,WeatherCatV1.14B232,2013-05-08 18:21:00,
2013-05-08 11:26:00,55.1,52.5,30.10,NE,47,0.0,0.0,91,0.00,,,0.00,262,WeatherCatV1.14B232,2013-05-08 18:26:00,
2013-05-08 11:31:00,55.3,51.5,30.10,NE,47,0.0,1.0,87,0.00,,,0.00,218,WeatherCatV1.14B232,2013-05-08 18:31:00,
2013-05-08 11:36:00,55.4,51.3,30.10,NE,44,0.0,1.0,86,0.00,,,0.00,202,WeatherCatV1.14B232,2013-05-08 18:36:00,
2013-05-08 11:41:00,55.6,51.5,30.10,NE,44,0.0,0.0,86,0.00,,,0.00,179,WeatherCatV1.14B232,2013-05-08 18:41:00,
2013-05-08 11:46:00,55.7,51.3,30.10,NE,44,0.0,0.0,85,0.00,,,0.00,197,WeatherCatV1.14B232,2013-05-08 18:46:00,
2013-05-08 11:51:00,56.2,51.4,30.10,NE,44,0.0,0.0,84,0.00,,,0.00,186,WeatherCatV1.14B232,2013-05-08 18:51:00,
2013-05-08 11:56:00,56.2,51.1,30.10,NE,44,0.0,1.0,83,0.00,,,0.00,186,WeatherCatV1.14B232,2013-05-08 18:56:00,
2013-05-08 12:01:00,56.5,51.7,30.10,NE,44,0.0,0.0,84,0.00,,,0.00,169,WeatherCatV1.14B232,2013-05-08 19:01:00,
2013-05-08 12:06:00,56.5,51.4,30.10,NE,44,0.0,0.0,83,0.00,,,0.00,172,WeatherCatV1.14B232,2013-05-08 19:06:00,
2013-05-08 12:11:00,56.6,51.8,30.10,NE,44,0.0,0.0,84,0.00,,,0.00,179,WeatherCatV1.14B232,2013-05-08 19:11:00,
2013-05-08 12:16:00,56.7,51.6,30.10,NE,44,0.0,1.0,83,0.00,,,0.00,162,WeatherCatV1.14B232,2013-05-08 19:16:00,
2013-05-08 12:21:00,56.9,51.8,30.10,NE,44,0.0,0.0,83,0.00,,,0.00,158,WeatherCatV1.14B232,2013-05-08 19:21:00,
2013-05-08 12:26:00,56.9,51.5,30.10,NE,44,1.0,2.0,82,0.00,,,0.00,169,WeatherCatV1.14B232,2013-05-08 19:26:00,
2013-05-08 12:31:00,56.9,51.5,30.10,NE,44,1.0,2.0,82,0.00,,,0.00,179,WeatherCatV1.14B232,2013-05-08 19:31:00,
2013-05-08 12:36:00,57.0,51.6,30.10,NE,44,0.0,1.0,82,0.00,,,0.00,190,WeatherCatV1.14B232,2013-05-08 19:36:00,
2013-05-08 12:41:00,57.0,51.2,30.10,NE,44,0.0,3.0,81,0.00,,,0.00,206,WeatherCatV1.14B232,2013-05-08 19:41:00,
2013-05-08 12:46:00,57.2,51.4,30.10,NE,44,0.0,0.0,81,0.00,,,0.00,197,WeatherCatV1.14B232,2013-05-08 19:46:00,
2013-05-08 12:51:00,57.3,51.5,30.10,NE,44,0.0,1.0,81,0.00,,,0.00,197,WeatherCatV1.14B232,2013-05-08 19:51:00,
2013-05-08 12:56:00,57.5,51.7,30.10,NE,44,0.0,2.0,81,0.00,,,0.00,197,WeatherCatV1.14B232,2013-05-08 19:56:00,
2013-05-08 13:01:00,57.3,50.8,30.10,SW,231,0.0,1.0,79,0.00,,,0.00,192,WeatherCatV1.14B232,2013-05-08 20:01:00,
2013-05-08 13:06:00,57.5,51.4,30.10,WSW,254,0.0,2.0,80,0.00,,,0.00,188,WeatherCatV1.14B232,2013-05-08 20:06:00,
2013-05-08 13:11:00,57.3,51.2,30.10,WSW,253,0.0,2.0,80,0.00,,,0.00,204,WeatherCatV1.14B232,2013-05-08 20:11:00,
2013-05-08 13:16:00,57.3,51.2,30.10,WSW,253,1.0,2.0,80,0.00,,,0.00,214,WeatherCatV1.14B232,2013-05-08 20:16:00,
2013-05-08 13:21:00,57.5,51.4,30.10,WSW,253,0.0,0.0,80,0.00,,,0.00,220,WeatherCatV1.14B232,2013-05-08 20:21:00,
2013-05-08 13:26:00,57.6,51.1,30.10,WSW,253,0.0,0.0,79,0.00,,,0.00,214,WeatherCatV1.14B232,2013-05-08 20:26:00,
2013-05-08 13:31:00,57.6,51.1,30.10,WSW,253,2.0,2.0,79,0.00,,,0.00,214,WeatherCatV1.14B232,2013-05-08 20:31:00,
2013-05-08 13:36:00,57.8,51.3,30.10,WSW,253,0.0,1.0,79,0.00,,,0.00,216,WeatherCatV1.14B232,2013-05-08 20:36:00,
2013-05-08 13:41:00,57.8,51.0,30.10,WSW,253,0.0,3.0,78,0.00,,,0.00,230,WeatherCatV1.14B232,2013-05-08 20:41:00,
2013-05-08 13:46:00,58.0,51.5,30.10,WSW,253,0.0,1.0,79,0.00,,,0.00,241,WeatherCatV1.14B232,2013-05-08 20:46:00,
2013-05-08 13:51:00,58.1,51.3,30.10,WSW,253,0.0,3.0,78,0.00,,,0.00,241,WeatherCatV1.14B232,2013-05-08 20:51:00,
2013-05-08 13:56:00,58.3,51.5,30.10,West,273,2.0,3.0,78,0.00,,,0.00,251,WeatherCatV1.14B232,2013-05-08 20:56:00,
2013-05-08 14:01:00,58.6,51.8,30.10,West,273,0.0,0.0,78,0.00,,,0.00,269,WeatherCatV1.14B232,2013-05-08 21:01:00,
2013-05-08 14:06:00,58.7,51.5,30.10,West,259,2.0,4.0,77,0.00,,,0.00,278,WeatherCatV1.14B232,2013-05-08 21:06:00,
2013-05-08 14:11:00,58.9,52.0,30.10,West,259,0.0,0.0,78,0.00,,,0.00,287,WeatherCatV1.14B232,2013-05-08 21:11:00,
2013-05-08 14:16:00,59.2,51.6,30.10,West,273,1.0,2.0,76,0.00,,,0.00,285,WeatherCatV1.14B232,2013-05-08 21:16:00,
2013-05-08 14:21:00,59.3,52.4,30.10,WSW,257,0.0,2.0,78,0.00,,,0.00,272,WeatherCatV1.14B232,2013-05-08 21:21:00,
2013-05-08 14:26:00,59.5,51.9,30.10,WSW,256,0.0,2.0,76,0.00,,,0.00,278,WeatherCatV1.14B232,2013-05-08 21:26:00,
2013-05-08 14:31:00,59.5,51.6,30.10,WSW,256,0.0,0.0,75,0.00,,,0.00,271,WeatherCatV1.14B232,2013-05-08 21:31:00,
2013-05-08 14:36:00,59.6,51.7,30.10,WSW,256,1.0,2.0,75,0.00,,,0.00,279,WeatherCatV1.14B232,2013-05-08 21:36:00,
2013-05-08 14:41:00,59.8,51.9,30.10,WSW,256,0.0,1.0,75,0.00,,,0.00,271,WeatherCatV1.14B232,2013-05-08 21:41:00,
2013-05-08 14:46:00,59.8,51.5,30.10,WSW,256,0.0,0.0,74,0.00,,,0.00,258,WeatherCatV1.14B232,2013-05-08 21:46:00,
2013-05-08 14:51:00,59.8,51.5,30.10,WSW,256,0.0,0.0,74,0.00,,,0.00,265,WeatherCatV1.14B232,2013-05-08 21:51:00,
2013-05-08 14:56:00,59.8,51.5,30.10,SW,229,2.0,2.0,74,0.00,,,0.00,283,WeatherCatV1.14B232,2013-05-08 21:56:00,
2013-05-08 15:01:00,59.9,51.6,30.10,SW,233,0.0,2.0,74,0.00,,,0.00,292,WeatherCatV1.14B232,2013-05-08 22:01:00,
2013-05-08 15:06:00,60.2,52.2,30.10,WSW,237,0.0,1.0,75,0.00,,,0.00,287,WeatherCatV1.14B232,2013-05-08 22:06:00,
2013-05-08 15:11:00,60.5,51.8,30.10,WSW,237,1.0,2.0,73,0.00,,,0.00,276,WeatherCatV1.14B232,2013-05-08 22:11:00,
2013-05-08 15:16:00,60.7,52.0,30.10,WSW,238,0.0,2.0,73,0.00,,,0.00,279,WeatherCatV1.14B232,2013-05-08 22:16:00,
2013-05-08 15:21:00,61.0,52.3,30.10,WSW,238,0.0,0.0,73,0.00,,,0.00,287,WeatherCatV1.14B232,2013-05-08 22:21:00,
2013-05-08 15:26:00,61.0,52.3,30.10,WSW,238,0.0,0.0,73,0.00,,,0.00,287,WeatherCatV1.14B232,2013-05-08 22:26:00,
2013-05-08 15:31:00,61.3,52.2,30.10,WSW,238,0.0,1.0,72,0.00,,,0.00,287,WeatherCatV1.14B232,2013-05-08 22:31:00,
2013-05-08 15:36:00,61.2,52.1,30.10,SE,136,0.0,2.0,72,0.00,,,0.00,287,WeatherCatV1.14B232,2013-05-08 22:36:00,
2013-05-08 15:41:00,61.0,51.9,30.10,SE,136,0.0,1.0,72,0.00,,,0.00,302,WeatherCatV1.14B232,2013-05-08 22:41:00,
2013-05-08 15:46:00,61.0,51.9,30.09,SE,136,0.0,1.0,72,0.00,,,0.00,302,WeatherCatV1.14B232,2013-05-08 22:46:00,
2013-05-08 15:51:00,61.0,52.3,30.09,SE,136,0.0,0.0,73,0.00,,,0.00,336,WeatherCatV1.14B232,2013-05-08 22:51:00,
2013-05-08 15:56:00,61.2,52.5,30.09,SE,136,0.0,1.0,73,0.00,,,0.00,353,WeatherCatV1.14B232,2013-05-08 22:56:00,
2013-05-08 16:01:00,60.5,52.2,30.09,SE,136,0.0,2.0,74,0.00,,,0.00,309,WeatherCatV1.14B232,2013-05-08 23:01:00,
2013-05-08 16:06:00,60.7,52.4,30.09,NW,307,0.0,0.0,74,0.00,,,0.00,301,WeatherCatV1.14B232,2013-05-08 23:06:00,
2013-05-08 16:11:00,60.7,52.0,30.09,WSW,240,0.0,0.0,73,0.00,,,0.00,285,WeatherCatV1.14B232,2013-05-08 23:11:00,
2013-05-08 16:16:00,60.4,51.7,30.09,SSE,159,0.0,1.0,73,0.00,,,0.00,279,WeatherCatV1.14B232,2013-05-08 23:16:00,
2013-05-08 16:21:00,60.1,52.1,30.09,WNW,288,2.0,2.0,75,0.00,,,0.00,287,WeatherCatV1.14B232,2013-05-08 23:21:00,
2013-05-08 16:26:00,60.1,52.1,30.09,WNW,290,0.0,2.0,75,0.00,,,0.00,352,WeatherCatV1.14B232,2013-05-08 23:26:00,
2013-05-08 16:31:00,60.9,52.9,30.08,NNW,340,0.0,3.0,75,0.00,,,0.00,427,WeatherCatV1.14B232,2013-05-08 23:31:00,
2013-05-08 16:36:00,61.5,53.1,30.08,SW,217,0.0,4.0,74,0.00,,,0.00,443,WeatherCatV1.14B232,2013-05-08 23:36:00,
2013-05-08 16:41:00,62.3,52.4,30.08,SSW,207,0.0,4.0,70,0.00,,,0.00,715,WeatherCatV1.14B232,2013-05-08 23:41:00,
2013-05-08 16:46:00,62.4,53.2,30.08,South,169,0.0,1.0,72,0.00,,,0.00,657,WeatherCatV1.14B232,2013-05-08 23:46:00,
2013-05-08 16:51:00,62.1,52.2,30.08,NW,306,1.0,2.0,70,0.00,,,0.00,207,WeatherCatV1.14B232,2013-05-08 23:51:00,
2013-05-08 16:56:00,61.3,52.6,30.08,NW,306,0.0,1.0,73,0.00,,,0.00,510,WeatherCatV1.14B232,2013-05-08 23:56:00,
2013-05-08 17:01:00,61.6,52.5,30.08,East,87,1.0,1.0,72,0.00,,,0.00,529,WeatherCatV1.14B232,2013-05-09 00:01:00,
2013-05-08 17:06:00,61.2,52.5,30.08,East,98,0.0,1.0,73,0.00,,,0.00,503,WeatherCatV1.14B232,2013-05-09 00:06:00,
2013-05-08 17:11:00,61.5,52.4,30.08,East,98,0.0,1.0,72,0.00,,,0.00,506,WeatherCatV1.14B232,2013-05-09 00:11:00,
2013-05-08 17:16:00,62.0,52.9,30.08,East,95,0.0,0.0,72,0.00,,,0.00,499,WeatherCatV1.14B232,2013-05-09 00:16:00,
2013-05-08 17:22:00,62.7,53.2,30.08,East,95,0.0,1.0,71,0.00,,,0.00,429,WeatherCatV1.14B232,2013-05-09 00:22:00,
2013-05-08 17:27:00,62.7,53.2,30.08,East,94,0.0,1.0,71,0.00,,,0.00,401,WeatherCatV1.14B232,2013-05-09 00:27:00,
2013-05-08 17:32:00,62.3,52.8,30.08,East,95,0.0,0.0,71,0.00,,,0.00,424,WeatherCatV1.14B232,2013-05-09 00:32:00,
2013-05-08 17:37:00,62.3,52.8,30.08,ESE,109,0.0,1.0,71,0.00,,,0.00,285,WeatherCatV1.14B232,2013-05-09 00:37:00,
2013-05-08 17:42:00,62.4,52.5,30.08,ESE,109,0.0,0.0,70,0.00,,,0.00,322,WeatherCatV1.14B232,2013-05-09 00:42:00,
2013-05-08 17:47:00,62.7,52.8,30.08,ESE,109,0.0,0.0,70,0.00,,,0.00,225,WeatherCatV1.14B232,2013-05-09 00:47:00,
2013-05-08 17:52:00,63.1,53.2,30.08,ESE,102,0.0,0.0,70,0.00,,,0.00,79,WeatherCatV1.14B232,2013-05-09 00:52:00,
2013-05-08 17:57:00,63.2,52.9,30.08,WNW,286,0.0,2.0,69,0.00,,,0.00,105,WeatherCatV1.14B232,2013-05-09 00:57:00,
2013-05-08 18:02:00,63.4,53.0,30.08,West,274,0.0,2.0,69,0.00,,,0.00,69,WeatherCatV1.14B232,2013-05-09 01:02:00,
2013-05-08 18:07:00,63.4,53.0,30.08,WNW,296,0.0,2.0,69,0.00,,,0.00,67,WeatherCatV1.14B232,2013-05-09 01:07:00,
2013-05-08 18:12:00,63.5,53.1,30.08,WNW,296,0.0,2.0,69,0.00,,,0.00,125,WeatherCatV1.14B232,2013-05-09 01:12:00,
2013-05-08 18:17:00,63.5,52.7,30.07,WNW,296,0.0,1.0,68,0.00,,,0.00,285,WeatherCatV1.14B232,2013-05-09 01:17:00,
2013-05-08 18:22:00,63.7,53.3,30.07,WNW,296,0.0,0.0,69,0.00,,,0.00,200,WeatherCatV1.14B232,2013-05-09 01:22:00,
2013-05-08 18:27:00,63.9,53.1,30.07,WNW,296,0.0,1.0,68,0.00,,,0.00,258,WeatherCatV1.14B232,2013-05-09 01:27:00,
2013-05-08 18:32:00,64.0,52.8,30.07,WNW,294,0.0,3.0,67,0.00,,,0.00,183,WeatherCatV1.14B232,2013-05-09 01:32:00,
2013-05-08 18:37:00,64.2,53.0,30.07,WNW,294,1.0,1.0,67,0.00,,,0.00,53,WeatherCatV1.14B232,2013-05-09 01:37:00,
2013-05-08 18:42:00,64.3,53.1,30.07,WNW,294,1.0,2.0,67,0.00,,,0.00,100,WeatherCatV1.14B232,2013-05-09 01:42:00,
2013-05-08 18:47:00,64.5,52.9,30.07,WNW,294,0.0,0.0,66,0.00,,,0.00,128,WeatherCatV1.14B232,2013-05-09 01:47:00,
2013-05-08 18:52:00,64.5,52.9,30.07,WNW,294,0.0,1.0,66,0.00,,,0.00,88,WeatherCatV1.14B232,2013-05-09 01:52:00,
2013-05-08 18:57:00,64.7,53.1,30.07,WNW,294,0.0,0.0,66,0.00,,,0.00,58,WeatherCatV1.14B232,2013-05-09 01:57:00,
2013-05-08 19:02:00,64.7,53.1,30.06,WNW,294,0.0,0.0,66,0.00,,,0.00,79,WeatherCatV1.14B232,2013-05-09 02:02:00,
2013-05-08 19:07:00,64.7,53.5,30.06,WNW,294,0.0,0.0,67,0.00,,,0.00,46,WeatherCatV1.14B232,2013-05-09 02:07:00,
2013-05-08 19:12:00,64.5,52.9,30.06,WNW,294,0.0,1.0,66,0.00,,,0.00,97,WeatherCatV1.14B232,2013-05-09 02:12:00,
2013-05-08 19:17:00,64.5,53.3,30.06,WNW,294,0.0,0.0,67,0.00,,,0.00,51,WeatherCatV1.14B232,2013-05-09 02:17:00,
2013-05-08 19:22:00,64.3,53.1,30.06,WNW,294,0.0,0.0,67,0.00,,,0.00,65,WeatherCatV1.14B232,2013-05-09 02:22:00,
2013-05-08 19:27:00,64.2,53.0,30.06,WNW,294,0.0,0.0,67,0.00,,,0.00,35,WeatherCatV1.14B232,2013-05-09 02:27:00,
2013-05-08 19:32:00,64.0,53.2,30.06,WNW,294,0.0,0.0,68,0.00,,,0.00,30,WeatherCatV1.14B232,2013-05-09 02:32:00,
2013-05-08 19:37:00,63.7,53.3,30.06,WNW,294,0.0,0.0,69,0.00,,,0.00,26,WeatherCatV1.14B232,2013-05-09 02:37:00,
2013-05-08 19:42:00,63.5,53.1,30.06,WNW,294,0.0,0.0,69,0.00,,,0.00,25,WeatherCatV1.14B232,2013-05-09 02:42:00,
2013-05-08 19:47:00,63.4,53.0,30.06,WNW,294,0.0,0.0,69,0.00,,,0.00,23,WeatherCatV1.14B232,2013-05-09 02:47:00,
2013-05-08 19:52:00,63.1,53.2,30.06,WNW,294,0.0,0.0,70,0.00,,,0.00,21,WeatherCatV1.14B232,2013-05-09 02:52:00,
2013-05-08 19:57:00,62.7,53.5,30.06,WNW,294,0.0,0.0,72,0.00,,,0.00,19,WeatherCatV1.14B232,2013-05-09 02:57:00,
2013-05-08 20:02:00,62.4,53.2,30.07,WNW,294,0.0,0.0,72,0.00,,,0.00,18,WeatherCatV1.14B232,2013-05-09 03:02:00,
2013-05-08 20:07:00,62.1,53.0,30.07,WNW,294,0.0,0.0,72,0.00,,,0.00,14,WeatherCatV1.14B232,2013-05-09 03:07:00,
2013-05-08 20:12:00,61.8,53.0,30.07,WNW,294,0.0,0.0,73,0.00,,,0.00,12,WeatherCatV1.14B232,2013-05-09 03:12:00,
2013-05-08 20:17:00,61.3,52.9,30.07,WNW,294,0.0,0.0,74,0.00,,,0.00,11,WeatherCatV1.14B232,2013-05-09 03:17:00,
2013-05-08 20:22:00,61.0,53.0,30.07,WNW,294,0.0,0.0,75,0.00,,,0.00,9,WeatherCatV1.14B232,2013-05-09 03:22:00,
2013-05-08 20:27:00,60.5,52.5,30.07,WNW,294,0.0,0.0,75,0.00,,,0.00,5,WeatherCatV1.14B232,2013-05-09 03:27:00,
2013-05-08 20:32:00,60.1,52.9,30.07,WNW,294,0.0,0.0,77,0.00,,,0.00,5,WeatherCatV1.14B232,2013-05-09 03:32:00,
2013-05-08 20:37:00,59.6,52.4,30.07,WNW,294,0.0,0.0,77,0.00,,,0.00,0,WeatherCatV1.14B232,2013-05-09 03:37:00,
2013-05-08 20:42:00,59.2,52.3,30.07,WNW,294,0.0,0.0,78,0.00,,,0.00,0,WeatherCatV1.14B232,2013-05-09 03:42:00,
2013-05-08 20:47:00,58.7,52.2,30.07,WNW,294,0.0,0.0,79,0.00,,,0.00,0,WeatherCatV1.14B232,2013-05-09 03:47:00,
2013-05-08 20:52:00,58.3,52.2,30.07,WNW,294,0.0,0.0,80,0.00,,,0.00,0,WeatherCatV1.14B232,2013-05-09 03:52:00,
2013-05-08 20:57:00,57.6,51.8,30.07,WNW,294,0.0,0.0,81,0.00,,,0.00,0,WeatherCatV1.14B232,2013-05-09 03:57:00,
2013-05-08 21:01:00,57.3,51.8,30.08,WNW,294,0.0,0.0,82,0.00,,,0.00,0,WeatherCatV1.14B232,2013-05-09 04:01:00,
2013-05-08 21:06:00,56.9,51.8,30.08,WNW,294,0.0,0.0,83,0.00,,,0.00,0,WeatherCatV1.14B232,2013-05-09 04:06:00,
2013-05-08 21:11:00,56.5,51.7,30.08,WNW,294,0.0,0.0,84,0.00,,,0.00,0,WeatherCatV1.14B232,2013-05-09 04:11:00,
2013-05-08 21:16:00,56.2,51.4,30.08,WNW,294,0.0,0.0,84,0.00,,,0.00,0,WeatherCatV1.14B232,2013-05-09 04:16:00,
2013-05-08 21:21:00,55.7,50.9,30.08,WNW,294,0.0,0.0,84,0.00,,,0.00,0,WeatherCatV1.14B232,2013-05-09 04:21:00,
2013-05-08 21:26:00,55.4,51.0,30.08,WNW,294,0.0,0.0,85,0.00,,,0.00,0,WeatherCatV1.14B232,2013-05-09 04:26:00,
2013-05-08 21:31:00,55.1,51.0,30.09,WNW,294,0.0,0.0,86,0.00,,,0.00,0,WeatherCatV1.14B232,2013-05-09 04:31:00,
2013-05-08 21:36:00,54.7,50.6,30.09,WNW,294,0.0,0.0,86,0.00,,,0.00,0,WeatherCatV1.14B232,2013-05-09 04:36:00,
2013-05-08 21:41:00,54.5,50.4,30.09,WNW,294,0.0,0.0,86,0.00,,,0.00,0,WeatherCatV1.14B232,2013-05-09 04:41:00,
2013-05-08 21:46:00,54.2,50.4,30.10,WNW,294,0.0,0.0,87,0.00,,,0.00,0,WeatherCatV1.14B232,2013-05-09 04:46:00,
2013-05-08 21:51:00,54.1,50.3,30.10,WNW,294,0.0,0.0,87,0.00,,,0.00,0,WeatherCatV1.14B232,2013-05-09 04:51:00,
2013-05-08 21:56:00,53.8,50.0,30.10,WNW,294,0.0,0.0,87,0.00,,,0.00,0,WeatherCatV1.14B232,2013-05-09 04:56:00,
2013-05-08 22:01:00,53.6,49.8,30.10,WNW,294,0.0,0.0,87,0.00,,,0.00,0,WeatherCatV1.14B232,2013-05-09 05:01:00,
2013-05-08 22:06:00,53.3,49.5,30.10,WNW,294,0.0,0.0,87,0.00,,,0.00,0,WeatherCatV1.14B232,2013-05-09 05:06:00,
2013-05-08 22:11:00,53.2,49.4,30.10,WNW,294,0.0,0.0,87,0.00,,,0.00,0,WeatherCatV1.14B232,2013-05-09 05:11:00,
2013-05-08 22:16:00,52.9,49.1,30.10,WNW,294,0.0,0.0,87,0.00,,,0.00,0,WeatherCatV1.14B232,2013-05-09 05:16:00,
2013-05-08 22:21:00,52.8,49.0,30.10,WNW,294,0.0,0.0,87,0.00,,,0.00,0,WeatherCatV1.14B232,2013-05-09 05:21:00,
2013-05-08 22:26:00,52.5,48.7,30.10,WNW,294,0.0,0.0,87,0.00,,,0.00,0,WeatherCatV1.14B232,2013-05-09 05:26:00,
2013-05-08 22:31:00,52.3,48.5,30.10,WNW,294,0.0,0.0,87,0.00,,,0.00,0,WeatherCatV1.14B232,2013-05-09 05:31:00,
2013-05-08 22:36:00,52.2,48.4,30.10,WNW,294,0.0,0.0,87,0.00,,,0.00,0,WeatherCatV1.14B232,2013-05-09 05:36:00,
2013-05-08 22:41:00,51.9,48.5,30.10,WNW,294,0.0,0.0,88,0.00,,,0.00,0,WeatherCatV1.14B232,2013-05-09 05:41:00,
2013-05-08 22:46:00,51.7,48.3,30.10,WNW,294,0.0,0.0,88,0.00,,,0.00,0,WeatherCatV1.14B232,2013-05-09 05:46:00,
2013-05-08 22:51:00,51.4,48.0,30.10,WNW,294,0.0,0.0,88,0.00,,,0.00,0,WeatherCatV1.14B232,2013-05-09 05:51:00,
2013-05-08 22:56:00,51.3,47.9,30.10,WNW,294,0.0,0.0,88,0.00,,,0.00,0,WeatherCatV1.14B232,2013-05-09 05:56:00,
2013-05-08 23:01:00,51.0,47.3,30.10,WNW,294,0.0,0.0,87,0.00,,,0.00,0,WeatherCatV1.14B232,2013-05-09 06:01:00,
2013-05-08 23:06:00,50.8,47.4,30.10,WNW,294,0.0,0.0,88,0.00,,,0.00,0,WeatherCatV1.14B232,2013-05-09 06:06:00,
2013-05-08 23:11:00,50.7,47.3,30.10,WNW,294,0.0,0.0,88,0.00,,,0.00,0,WeatherCatV1.14B232,2013-05-09 06:11:00,
2013-05-08 23:16:00,50.5,47.4,30.10,WNW,294,0.0,0.0,89,0.00,,,0.00,0,WeatherCatV1.14B232,2013-05-09 06:16:00,
2013-05-08 23:21:00,50.2,47.1,30.10,WNW,294,0.0,0.0,89,0.00,,,0.00,0,WeatherCatV1.14B232,2013-05-09 06:21:00,
2013-05-08 23:26:00,50.1,47.0,30.10,WNW,294,0.0,0.0,89,0.00,,,0.00,0,WeatherCatV1.14B232,2013-05-09 06:26:00,
2013-05-08 23:31:00,49.9,47.1,30.11,WNW,294,0.0,0.0,90,0.00,,,0.00,0,WeatherCatV1.14B232,2013-05-09 06:31:00,
2013-05-08 23:36:00,49.8,47.0,30.11,WNW,294,0.0,0.0,90,0.00,,,0.00,0,WeatherCatV1.14B232,2013-05-09 06:36:00,
2013-05-08 23:41:00,49.6,46.8,30.11,WNW,294,0.0,0.0,90,0.00,,,0.00,0,WeatherCatV1.14B232,2013-05-09 06:41:00,
2013-05-08 23:46:00,49.5,46.7,30.11,WNW,294,0.0,0.0,90,0.00,,,0.00,0,WeatherCatV1.14B232,2013-05-09 06:46:00,
2013-05-08 23:51:00,49.4,46.9,30.11,WNW,294,0.0,0.0,91,0.00,,,0.00,0,WeatherCatV1.14B232,2013-05-09 06:51:00,
2013-05-08 23:56:00,49.2,46.7,30.11,WNW,294,0.0,0.0,91,0.00,,,0.00,0,WeatherCatV1.14B232,2013-05-09 06:56:00,